sensor_id;sensor_type;location;lat;lon;timestamp;pressure;altitude;pressure_sealevel;temperature;humidity
20015;BME280;61787;42.022;23.078;2023-05-22T00:00:25;96363.63;;;14.98;78.05
20015;BME280;61787;42.022;23.078;2023-05-22T00:01:27;96365.28;;;15.10;77.90
20015;BME280;61787;42.022;23.078;2023-05-22T00:02:29;96364.69;;;15.27;77.38
20015;BME280;61787;42.022;23.078;2023-05-22T00:03:33;96358.56;;;15.37;76.67
20015;BME280;61787;42.022;23.078;2023-05-22T00:04:36;96362.50;;;15.47;76.77
20015;BME280;61787;42.022;23.078;2023-05-22T00:05:38;96361.41;;;15.51;75.75
20015;BME280;61787;42.022;23.078;2023-05-22T00:06:41;96356.41;;;15.53;77.52
20015;BME280;61787;42.022;23.078;2023-05-22T00:07:43;96353.22;;;15.44;78.10
20015;BME280;61787;42.022;23.078;2023-05-22T00:08:46;96357.09;;;15.43;78.41
20015;BME280;61787;42.022;23.078;2023-05-22T00:09:48;96358.63;;;15.44;78.16
20015;BME280;61787;42.022;23.078;2023-05-22T00:10:50;96363.66;;;15.46;78.23
20015;BME280;61787;42.022;23.078;2023-05-22T00:11:51;96367.94;;;15.50;77.86
20015;BME280;61787;42.022;23.078;2023-05-22T00:12:53;96361.81;;;15.53;77.25
20015;BME280;61787;42.022;23.078;2023-05-22T00:13:55;96355.66;;;15.56;77.13
20015;BME280;61787;42.022;23.078;2023-05-22T00:14:56;96361.06;;;15.56;77.08
20015;BME280;61787;42.022;23.078;2023-05-22T00:15:58;96353.38;;;15.58;77.88
20015;BME280;61787;42.022;23.078;2023-05-22T00:17:00;96361.13;;;15.67;77.53
20015;BME280;61787;42.022;23.078;2023-05-22T00:18:02;96357.28;;;15.71;77.81
20015;BME280;61787;42.022;23.078;2023-05-22T00:19:04;96354.16;;;15.66;77.41
20015;BME280;61787;42.022;23.078;2023-05-22T00:20:07;96355.00;;;15.73;77.19
20015;BME280;61787;42.022;23.078;2023-05-22T00:21:11;96358.84;;;15.72;77.48
20015;BME280;61787;42.022;23.078;2023-05-22T00:22:12;96357.72;;;15.73;77.59
20015;BME280;61787;42.022;23.078;2023-05-22T00:23:14;96353.78;;;15.64;77.46
20015;BME280;61787;42.022;23.078;2023-05-22T00:24:17;96350.25;;;15.60;78.06
20015;BME280;61787;42.022;23.078;2023-05-22T00:25:19;96351.88;;;15.64;78.75
20015;BME280;61787;42.022;23.078;2023-05-22T00:26:20;96349.50;;;15.59;79.18
20015;BME280;61787;42.022;23.078;2023-05-22T00:27:25;96355.63;;;15.53;79.34
20015;BME280;61787;42.022;23.078;2023-05-22T00:28:27;96356.41;;;15.53;79.16
20015;BME280;61787;42.022;23.078;2023-05-22T00:29:29;96352.59;;;15.61;79.53
20015;BME280;61787;42.022;23.078;2023-05-22T00:30:31;96352.66;;;15.68;78.86
20015;BME280;61787;42.022;23.078;2023-05-22T00:31:33;96360.41;;;15.73;78.90
20015;BME280;61787;42.022;23.078;2023-05-22T00:32:35;96355.78;;;15.77;78.51
20015;BME280;61787;42.022;23.078;2023-05-22T00:33:36;96358.91;;;15.80;77.70
20015;BME280;61787;42.022;23.078;2023-05-22T00:34:38;96358.09;;;15.75;78.80
20015;BME280;61787;42.022;23.078;2023-05-22T00:35:40;96361.97;;;15.78;78.45
20015;BME280;61787;42.022;23.078;2023-05-22T00:36:42;96361.16;;;15.70;79.58
20015;BME280;61787;42.022;23.078;2023-05-22T00:37:43;96363.44;;;15.65;79.69
20015;BME280;61787;42.022;23.078;2023-05-22T00:38:46;96368.81;;;15.61;80.00
20015;BME280;61787;42.022;23.078;2023-05-22T00:39:48;96369.16;;;15.56;80.75
20015;BME280;61787;42.022;23.078;2023-05-22T00:40:50;96364.91;;;15.55;81.29
20015;BME280;61787;42.022;23.078;2023-05-22T00:41:51;96368.00;;;15.54;81.21
20015;BME280;61787;42.022;23.078;2023-05-22T00:42:53;96369.56;;;15.58;81.52
20015;BME280;61787;42.022;23.078;2023-05-22T00:43:55;96357.63;;;15.63;80.80
20015;BME280;61787;42.022;23.078;2023-05-22T00:44:56;96367.31;;;15.67;80.68
20015;BME280;61787;42.022;23.078;2023-05-22T00:45:58;96361.91;;;15.67;80.37
20015;BME280;61787;42.022;23.078;2023-05-22T00:47:00;96363.44;;;15.65;80.42
20015;BME280;61787;42.022;23.078;2023-05-22T00:48:03;96350.66;;;15.62;80.69
20015;BME280;61787;42.022;23.078;2023-05-22T00:49:04;96359.50;;;15.55;80.34
20015;BME280;61787;42.022;23.078;2023-05-22T00:50:09;96356.31;;;15.46;81.44
20015;BME280;61787;42.022;23.078;2023-05-22T00:51:11;96356.66;;;15.38;82.88
20015;BME280;61787;42.022;23.078;2023-05-22T00:52:13;96360.06;;;15.27;83.46
20015;BME280;61787;42.022;23.078;2023-05-22T00:53:19;96353.06;;;15.23;83.78
20015;BME280;61787;42.022;23.078;2023-05-22T00:54:21;96355.72;;;15.19;84.10
20015;BME280;61787;42.022;23.078;2023-05-22T00:55:24;96362.69;;;15.24;83.61
20015;BME280;61787;42.022;23.078;2023-05-22T00:56:25;96358.47;;;15.23;83.30
20015;BME280;61787;42.022;23.078;2023-05-22T00:57:29;96362.75;;;15.27;83.47
20015;BME280;61787;42.022;23.078;2023-05-22T00:58:31;96357.78;;;15.33;82.47
20015;BME280;61787;42.022;23.078;2023-05-22T00:59:34;96364.75;;;15.38;82.02
20015;BME280;61787;42.022;23.078;2023-05-22T01:00:37;96355.44;;;15.31;82.47
20015;BME280;61787;42.022;23.078;2023-05-22T01:01:40;96356.91;;;15.18;82.38
20015;BME280;61787;42.022;23.078;2023-05-22T01:02:43;96353.03;;;15.19;82.77
20015;BME280;61787;42.022;23.078;2023-05-22T01:03:45;96349.16;;;15.17;82.98
20015;BME280;61787;42.022;23.078;2023-05-22T01:04:47;96358.50;;;15.26;82.96
20015;BME280;61787;42.022;23.078;2023-05-22T01:05:49;96353.91;;;15.34;82.04
20015;BME280;61787;42.022;23.078;2023-05-22T01:06:52;96349.69;;;15.36;82.48
20015;BME280;61787;42.022;23.078;2023-05-22T01:07:54;96351.63;;;15.36;82.03
20015;BME280;61787;42.022;23.078;2023-05-22T01:08:57;96350.13;;;15.42;81.70
20015;BME280;61787;42.022;23.078;2023-05-22T01:09:59;96347.81;;;15.44;82.31
20015;BME280;61787;42.022;23.078;2023-05-22T01:11:06;96350.50;;;15.44;81.76
20015;BME280;61787;42.022;23.078;2023-05-22T01:14:16;96348.47;;;15.27;82.71
20015;BME280;61787;42.022;23.078;2023-05-22T01:15:37;96346.22;;;15.40;81.62
20015;BME280;61787;42.022;23.078;2023-05-22T01:23:48;96336.28;;;15.51;80.94
20015;BME280;61787;42.022;23.078;2023-05-22T01:29:21;96342.50;;;15.55;81.23
20015;BME280;61787;42.022;23.078;2023-05-22T01:31:44;96352.31;;;15.26;82.39
20015;BME280;61787;42.022;23.078;2023-05-22T01:32:48;96342.63;;;15.18;83.50
20015;BME280;61787;42.022;23.078;2023-05-22T01:33:53;96346.03;;;15.15;84.66
20015;BME280;61787;42.022;23.078;2023-05-22T01:35:00;96346.03;;;15.11;84.78
20015;BME280;61787;42.022;23.078;2023-05-22T01:36:05;96342.19;;;15.16;85.08
20015;BME280;61787;42.022;23.078;2023-05-22T01:37:08;96342.66;;;15.25;84.67
20015;BME280;61787;42.022;23.078;2023-05-22T01:38:10;96340.81;;;15.36;83.83
20015;BME280;61787;42.022;23.078;2023-05-22T01:39:13;96341.69;;;15.51;83.14
20015;BME280;61787;42.022;23.078;2023-05-22T01:40:16;96348.72;;;15.59;83.54
20015;BME280;61787;42.022;23.078;2023-05-22T01:41:19;96338.72;;;15.66;82.98
20015;BME280;61787;42.022;23.078;2023-05-22T01:42:21;96332.19;;;15.67;83.48
20015;BME280;61787;42.022;23.078;2023-05-22T01:43:24;96336.84;;;15.74;83.36
20015;BME280;61787;42.022;23.078;2023-05-22T01:44:25;96334.56;;;15.80;82.87
20015;BME280;61787;42.022;23.078;2023-05-22T01:45:27;96326.47;;;15.80;82.90
20015;BME280;61787;42.022;23.078;2023-05-22T01:46:29;96329.97;;;15.91;82.11
20015;BME280;61787;42.022;23.078;2023-05-22T01:47:31;96332.72;;;15.98;82.06
20015;BME280;61787;42.022;23.078;2023-05-22T01:48:34;96327.31;;;16.01;81.56
20015;BME280;61787;42.022;23.078;2023-05-22T01:49:36;96323.88;;;16.04;82.02
20015;BME280;61787;42.022;23.078;2023-05-22T01:50:38;96326.59;;;16.08;81.05
20015;BME280;61787;42.022;23.078;2023-05-22T01:53:12;96316.56;;;16.08;81.20
20015;BME280;61787;42.022;23.078;2023-05-22T01:54:36;96321.19;;;16.08;80.67
20015;BME280;61787;42.022;23.078;2023-05-22T01:56:52;96319.63;;;16.07;80.89
20015;BME280;61787;42.022;23.078;2023-05-22T01:57:59;96323.47;;;15.99;80.61
20015;BME280;61787;42.022;23.078;2023-05-22T01:59:10;96324.63;;;15.98;80.92
20015;BME280;61787;42.022;23.078;2023-05-22T02:00:16;96333.13;;;16.00;81.17
20015;BME280;61787;42.022;23.078;2023-05-22T02:01:24;96332.72;;;15.98;80.87
20015;BME280;61787;42.022;23.078;2023-05-22T02:02:27;96328.84;;;15.92;81.04
20015;BME280;61787;42.022;23.078;2023-05-22T02:03:31;96324.16;;;15.85;81.65
20015;BME280;61787;42.022;23.078;2023-05-22T02:04:37;96327.63;;;15.78;82.05
20015;BME280;61787;42.022;23.078;2023-05-22T02:05:40;96321.06;;;15.80;81.86
20015;BME280;61787;42.022;23.078;2023-05-22T02:06:43;96328.75;;;15.77;82.10
20015;BME280;61787;42.022;23.078;2023-05-22T02:07:46;96329.53;;;15.74;82.35
20015;BME280;61787;42.022;23.078;2023-05-22T02:08:49;96334.13;;;15.70;82.04
20015;BME280;61787;42.022;23.078;2023-05-22T02:09:54;96324.47;;;15.69;82.44
20015;BME280;61787;42.022;23.078;2023-05-22T02:10:56;96324.06;;;15.67;82.36
20015;BME280;61787;42.022;23.078;2023-05-22T02:11:59;96325.63;;;15.68;82.36
20015;BME280;61787;42.022;23.078;2023-05-22T02:13:01;96327.94;;;15.70;82.87
20015;BME280;61787;42.022;23.078;2023-05-22T02:14:03;96331.03;;;15.68;82.88
20015;BME280;61787;42.022;23.078;2023-05-22T02:15:06;96334.81;;;15.60;82.72
20015;BME280;61787;42.022;23.078;2023-05-22T02:16:09;96329.41;;;15.60;82.97
20015;BME280;61787;42.022;23.078;2023-05-22T02:17:13;96339.09;;;15.61;82.93
20015;BME280;61787;42.022;23.078;2023-05-22T02:18:14;96335.56;;;15.54;82.89
20015;BME280;61787;42.022;23.078;2023-05-22T02:19:16;96336.19;;;15.36;83.70
20015;BME280;61787;42.022;23.078;2023-05-22T02:20:19;96332.25;;;15.23;84.53
20015;BME280;61787;42.022;23.078;2023-05-22T02:21:21;96334.91;;;15.20;84.61
20015;BME280;61787;42.022;23.078;2023-05-22T02:22:22;96333.31;;;15.15;84.94
20015;BME280;61787;42.022;23.078;2023-05-22T02:23:25;96338.28;;;15.10;85.91
20015;BME280;61787;42.022;23.078;2023-05-22T02:24:28;96335.59;;;15.10;85.99
20015;BME280;61787;42.022;23.078;2023-05-22T02:25:30;96333.69;;;15.14;85.41
20015;BME280;61787;42.022;23.078;2023-05-22T02:26:32;96329.72;;;15.01;85.71
20015;BME280;61787;42.022;23.078;2023-05-22T02:27:33;96338.16;;;14.96;86.32
20015;BME280;61787;42.022;23.078;2023-05-22T02:28:35;96341.66;;;15.00;86.27
20015;BME280;61787;42.022;23.078;2023-05-22T02:29:37;96340.97;;;15.10;86.12
20015;BME280;61787;42.022;23.078;2023-05-22T02:30:39;96339.91;;;15.18;85.87
20015;BME280;61787;42.022;23.078;2023-05-22T02:31:41;96336.88;;;15.23;85.26
20015;BME280;61787;42.022;23.078;2023-05-22T02:32:42;96337.66;;;15.27;85.26
20015;BME280;61787;42.022;23.078;2023-05-22T02:33:44;96341.16;;;15.31;84.43
20015;BME280;61787;42.022;23.078;2023-05-22T02:34:46;96343.50;;;15.36;83.91
20015;BME280;61787;42.022;23.078;2023-05-22T02:35:48;96340.75;;;15.29;84.18
20015;BME280;61787;42.022;23.078;2023-05-22T02:36:50;96346.16;;;15.29;84.06
20015;BME280;61787;42.022;23.078;2023-05-22T02:37:51;96342.72;;;15.35;84.22
20015;BME280;61787;42.022;23.078;2023-05-22T02:38:53;96340.03;;;15.35;83.40
20015;BME280;61787;42.022;23.078;2023-05-22T02:39:56;96343.84;;;15.31;83.93
20015;BME280;61787;42.022;23.078;2023-05-22T02:40:58;96343.06;;;15.27;83.58
20015;BME280;61787;42.022;23.078;2023-05-22T02:41:59;96337.59;;;15.20;84.05
20015;BME280;61787;42.022;23.078;2023-05-22T02:43:01;96335.28;;;15.18;84.48
20015;BME280;61787;42.022;23.078;2023-05-22T02:44:03;96343.41;;;15.22;84.03
20015;BME280;61787;42.022;23.078;2023-05-22T02:45:05;96350.38;;;15.23;84.28
20015;BME280;61787;42.022;23.078;2023-05-22T02:46:07;96343.06;;;15.27;84.09
20015;BME280;61787;42.022;23.078;2023-05-22T02:47:08;96346.97;;;15.33;84.02
20015;BME280;61787;42.022;23.078;2023-05-22T02:48:10;96347.72;;;15.30;83.71
20015;BME280;61787;42.022;23.078;2023-05-22T02:49:12;96343.84;;;15.31;83.57
20015;BME280;61787;42.022;23.078;2023-05-22T02:50:14;96349.25;;;15.27;83.62
20015;BME280;61787;42.022;23.078;2023-05-22T02:51:15;96346.13;;;15.25;83.64
20015;BME280;61787;42.022;23.078;2023-05-22T02:52:17;96350.03;;;15.31;84.29
20015;BME280;61787;42.022;23.078;2023-05-22T02:53:19;96348.56;;;15.41;83.16
20015;BME280;61787;42.022;23.078;2023-05-22T02:54:20;96345.94;;;15.48;83.21
20015;BME280;61787;42.022;23.078;2023-05-22T02:55:22;96347.97;;;15.58;83.14
20015;BME280;61787;42.022;23.078;2023-05-22T02:56:24;96346.47;;;15.64;83.50
20015;BME280;61787;42.022;23.078;2023-05-22T02:57:28;96346.09;;;15.69;83.10
20015;BME280;61787;42.022;23.078;2023-05-22T02:58:29;96354.94;;;15.66;82.69
20015;BME280;61787;42.022;23.078;2023-05-22T02:59:31;96345.69;;;15.67;83.73
20015;BME280;61787;42.022;23.078;2023-05-22T03:00:33;96352.25;;;15.66;83.10
20015;BME280;61787;42.022;23.078;2023-05-22T03:01:34;96348.75;;;15.62;82.65
20015;BME280;61787;42.022;23.078;2023-05-22T03:02:37;96344.84;;;15.56;83.30
20015;BME280;61787;42.022;23.078;2023-05-22T03:03:39;96351.03;;;15.60;83.04
20015;BME280;61787;42.022;23.078;2023-05-22T03:04:41;96347.97;;;15.65;82.99
20015;BME280;61787;42.022;23.078;2023-05-22T03:05:43;96351.88;;;15.68;82.71
20015;BME280;61787;42.022;23.078;2023-05-22T03:06:46;96353.38;;;15.62;82.02
20015;BME280;61787;42.022;23.078;2023-05-22T03:07:47;96343.97;;;15.45;83.68
20015;BME280;61787;42.022;23.078;2023-05-22T03:08:49;96346.28;;;15.47;83.50
20015;BME280;61787;42.022;23.078;2023-05-22T03:09:51;96347.16;;;15.54;83.41
20015;BME280;61787;42.022;23.078;2023-05-22T03:10:57;96348.34;;;15.60;82.97
20015;BME280;61787;42.022;23.078;2023-05-22T03:11:59;96344.84;;;15.56;83.59
20015;BME280;61787;42.022;23.078;2023-05-22T03:13:01;96339.09;;;15.61;83.42
20015;BME280;61787;42.022;23.078;2023-05-22T03:14:03;96344.84;;;15.60;83.99
20015;BME280;61787;42.022;23.078;2023-05-22T03:15:05;96348.75;;;15.66;83.64
20015;BME280;61787;42.022;23.078;2023-05-22T03:16:07;96349.59;;;15.73;84.02
20015;BME280;61787;42.022;23.078;2023-05-22T03:17:09;96352.31;;;15.77;83.97
20015;BME280;61787;42.022;23.078;2023-05-22T03:18:10;96345.78;;;15.82;83.53
20015;BME280;61787;42.022;23.078;2023-05-22T03:19:15;96357.41;;;15.89;82.87
20015;BME280;61787;42.022;23.078;2023-05-22T03:20:17;96355.88;;;15.92;82.63
20015;BME280;61787;42.022;23.078;2023-05-22T03:21:19;96357.78;;;15.91;82.90
20015;BME280;61787;42.022;23.078;2023-05-22T03:22:20;96359.00;;;15.97;82.51
20015;BME280;61787;42.022;23.078;2023-05-22T03:23:23;96360.56;;;16.02;81.72
20015;BME280;61787;42.022;23.078;2023-05-22T03:24:25;96365.22;;;16.05;82.14
20015;BME280;61787;42.022;23.078;2023-05-22T03:25:27;96355.94;;;16.06;81.64
20015;BME280;61787;42.022;23.078;2023-05-22T03:26:29;96361.75;;;16.08;82.09
20015;BME280;61787;42.022;23.078;2023-05-22T03:27:31;96364.09;;;16.13;81.33
20015;BME280;61787;42.022;23.078;2023-05-22T03:28:33;96368.38;;;16.17;81.27
20015;BME280;61787;42.022;23.078;2023-05-22T03:29:34;96369.13;;;16.18;81.92
20015;BME280;61787;42.022;23.078;2023-05-22T03:30:36;96368.38;;;16.17;81.73
20015;BME280;61787;42.022;23.078;2023-05-22T03:31:38;96374.19;;;16.19;82.23
20015;BME280;61787;42.022;23.078;2023-05-22T03:32:40;96362.97;;;16.21;82.08
20015;BME280;61787;42.022;23.078;2023-05-22T03:33:42;96371.47;;;16.23;81.95
20015;BME280;61787;42.022;23.078;2023-05-22T03:34:43;96367.63;;;16.24;81.87
20015;BME280;61787;42.022;23.078;2023-05-22T03:35:45;96363.00;;;16.28;81.58
20015;BME280;61787;42.022;23.078;2023-05-22T03:36:47;96372.31;;;16.34;81.73
20015;BME280;61787;42.022;23.078;2023-05-22T03:37:49;96366.91;;;16.38;81.16
20015;BME280;61787;42.022;23.078;2023-05-22T03:38:51;96367.31;;;16.40;80.91
20015;BME280;61787;42.022;23.078;2023-05-22T03:39:53;96363.06;;;16.42;80.92
20015;BME280;61787;42.022;23.078;2023-05-22T03:40:54;96366.16;;;16.44;81.00
20015;BME280;61787;42.022;23.078;2023-05-22T03:41:56;96358.44;;;16.46;80.68
20015;BME280;61787;42.022;23.078;2023-05-22T03:42:58;96361.53;;;16.48;81.25
20015;BME280;61787;42.022;23.078;2023-05-22T03:44:01;96367.72;;;16.49;81.26
20015;BME280;61787;42.022;23.078;2023-05-22T03:45:03;96363.09;;;16.53;80.85
20015;BME280;61787;42.022;23.078;2023-05-22T03:46:05;96360.00;;;16.51;80.74
20015;BME280;61787;42.022;23.078;2023-05-22T03:47:07;96362.31;;;16.49;80.74
20015;BME280;61787;42.022;23.078;2023-05-22T03:48:09;96364.66;;;16.50;80.44
20015;BME280;61787;42.022;23.078;2023-05-22T03:49:11;96363.88;;;16.53;80.60
20015;BME280;61787;42.022;23.078;2023-05-22T03:50:12;96365.44;;;16.54;80.37
20015;BME280;61787;42.022;23.078;2023-05-22T03:51:14;96373.19;;;16.56;80.46
20015;BME280;61787;42.022;23.078;2023-05-22T03:52:20;96376.25;;;16.54;80.11
20015;BME280;61787;42.022;23.078;2023-05-22T03:53:22;96377.78;;;16.48;81.44
20015;BME280;61787;42.022;23.078;2023-05-22T03:54:23;96377.00;;;16.44;81.63
20015;BME280;61787;42.022;23.078;2023-05-22T03:55:25;96373.13;;;16.45;81.30
20015;BME280;61787;42.022;23.078;2023-05-22T03:56:27;96370.03;;;16.43;81.75
20015;BME280;61787;42.022;23.078;2023-05-22T03:57:28;96368.47;;;16.42;81.91
20015;BME280;61787;42.022;23.078;2023-05-22T03:58:30;96373.91;;;16.46;81.69
20015;BME280;61787;42.022;23.078;2023-05-22T03:59:31;96375.06;;;16.45;81.96
20015;BME280;61787;42.022;23.078;2023-05-22T04:00:33;96382.41;;;16.48;81.85
20015;BME280;61787;42.022;23.078;2023-05-22T04:01:35;96383.19;;;16.45;81.34
20015;BME280;61787;42.022;23.078;2023-05-22T04:02:39;96388.19;;;16.43;81.27
20015;BME280;61787;42.022;23.078;2023-05-22T04:03:45;96386.25;;;16.43;80.94
20015;BME280;61787;42.022;23.078;2023-05-22T04:04:47;96377.75;;;16.41;81.60
20015;BME280;61787;42.022;23.078;2023-05-22T04:05:49;96383.94;;;16.42;81.42
20015;BME280;61787;42.022;23.078;2023-05-22T04:06:52;96381.63;;;16.44;81.62
20015;BME280;61787;42.022;23.078;2023-05-22T04:07:53;96381.25;;;16.45;81.55
20015;BME280;61787;42.022;23.078;2023-05-22T04:08:55;96382.44;;;16.51;81.52
20015;BME280;61787;42.022;23.078;2023-05-22T04:09:56;96382.44;;;16.51;81.66
20015;BME280;61787;42.022;23.078;2023-05-22T04:10:58;96382.03;;;16.53;81.15
20015;BME280;61787;42.022;23.078;2023-05-22T04:12:01;96376.63;;;16.46;84.02
20015;BME280;61787;42.022;23.078;2023-05-22T04:13:03;96383.19;;;16.48;83.16
20015;BME280;61787;42.022;23.078;2023-05-22T04:14:05;96389.78;;;16.54;82.36
20015;BME280;61787;42.022;23.078;2023-05-22T04:15:08;96388.66;;;16.59;81.75
20015;BME280;61787;42.022;23.078;2023-05-22T04:16:09;96384.38;;;16.58;80.78
20015;BME280;61787;42.022;23.078;2023-05-22T04:17:11;96394.06;;;16.55;80.93
20015;BME280;61787;42.022;23.078;2023-05-22T04:18:13;96390.19;;;16.56;80.79
20015;BME280;61787;42.022;23.078;2023-05-22T04:19:14;96386.31;;;16.57;80.92
20015;BME280;61787;42.022;23.078;2023-05-22T04:20:17;96378.25;;;16.65;80.93
20015;BME280;61787;42.022;23.078;2023-05-22T04:21:19;96378.25;;;16.65;81.24
20015;BME280;61787;42.022;23.078;2023-05-22T04:22:20;96384.81;;;16.63;79.80
20015;BME280;61787;42.022;23.078;2023-05-22T04:23:23;96388.28;;;16.60;78.99
20015;BME280;61787;42.022;23.078;2023-05-22T04:24:24;96380.09;;;16.50;78.79
20015;BME280;61787;42.022;23.078;2023-05-22T04:25:28;96380.09;;;16.50;78.46
20015;BME280;61787;42.022;23.078;2023-05-22T04:26:30;96383.22;;;16.55;78.53
20015;BME280;61787;42.022;23.078;2023-05-22T04:27:32;96391.00;;;16.60;78.97
20015;BME280;61787;42.022;23.078;2023-05-22T04:28:34;96378.25;;;16.65;78.65
20015;BME280;61787;42.022;23.078;2023-05-22T04:29:36;96378.63;;;16.63;79.13
20015;BME280;61787;42.022;23.078;2023-05-22T04:30:38;96385.50;;;16.46;79.89
20015;BME280;61787;42.022;23.078;2023-05-22T04:31:41;96386.63;;;16.31;79.67
20015;BME280;61787;42.022;23.078;2023-05-22T04:32:43;96377.66;;;16.20;80.11
20015;BME280;61787;42.022;23.078;2023-05-22T04:33:45;96390.44;;;16.23;80.09
20015;BME280;61787;42.022;23.078;2023-05-22T04:34:48;96385.38;;;16.14;80.92
20015;BME280;61787;42.022;23.078;2023-05-22T04:35:53;96395.34;;;16.07;81.33
20015;BME280;61787;42.022;23.078;2023-05-22T04:36:54;96386.88;;;16.05;82.50
20015;BME280;61787;42.022;23.078;2023-05-22T04:37:57;96385.31;;;16.07;83.54
20015;BME280;61787;42.022;23.078;2023-05-22T04:39:02;96395.41;;;16.17;83.61
20015;BME280;61787;42.022;23.078;2023-05-22T04:40:07;96394.69;;;16.20;83.64
20015;BME280;61787;42.022;23.078;2023-05-22T04:41:10;96400.13;;;16.31;83.67
20015;BME280;61787;42.022;23.078;2023-05-22T04:42:12;96397.06;;;16.40;83.35
20015;BME280;61787;42.022;23.078;2023-05-22T04:43:14;96392.44;;;16.40;82.12
20015;BME280;61787;42.022;23.078;2023-05-22T04:44:19;96393.19;;;16.37;82.62
20015;BME280;61787;42.022;23.078;2023-05-22T04:45:24;96397.81;;;16.33;81.58
20015;BME280;61787;42.022;23.078;2023-05-22T04:46:26;96403.28;;;16.40;81.65
20015;BME280;61787;42.022;23.078;2023-05-22T04:47:29;96397.88;;;16.47;81.76
20015;BME280;61787;42.022;23.078;2023-05-22T04:48:32;96404.13;;;16.58;80.91
20015;BME280;61787;42.022;23.078;2023-05-22T04:49:34;96396.81;;;16.73;80.94
20015;BME280;61787;42.022;23.078;2023-05-22T04:50:35;96399.56;;;16.84;80.60
20015;BME280;61787;42.022;23.078;2023-05-22T04:51:39;96398.78;;;16.80;79.12
20015;BME280;61787;42.022;23.078;2023-05-22T04:52:41;96397.63;;;16.81;78.69
20015;BME280;61787;42.022;23.078;2023-05-22T04:53:42;96395.72;;;16.92;78.89
20015;BME280;61787;42.022;23.078;2023-05-22T04:54:44;96398.09;;;17.11;78.22
20015;BME280;61787;42.022;23.078;2023-05-22T04:55:47;96395.00;;;17.30;77.59
20015;BME280;61787;42.022;23.078;2023-05-22T04:56:49;96398.13;;;17.46;77.34
20015;BME280;61787;42.022;23.078;2023-05-22T04:57:51;96393.47;;;17.54;75.96
20015;BME280;61787;42.022;23.078;2023-05-22T04:58:53;96398.91;;;17.61;75.78
20015;BME280;61787;42.022;23.078;2023-05-22T04:59:56;96392.69;;;17.75;75.91
20015;BME280;61787;42.022;23.078;2023-05-22T05:00:57;96396.56;;;17.81;74.36
20015;BME280;61787;42.022;23.078;2023-05-22T05:01:59;96393.88;;;17.74;74.00
20015;BME280;61787;42.022;23.078;2023-05-22T05:03:02;96397.72;;;17.87;73.83
20015;BME280;61787;42.022;23.078;2023-05-22T05:04:04;96402.34;;;18.08;73.21
20015;BME280;61787;42.022;23.078;2023-05-22T05:05:06;96394.16;;;18.25;73.25
20015;BME280;61787;42.022;23.078;2023-05-22T05:06:08;96393.31;;;18.43;72.90
20015;BME280;61787;42.022;23.078;2023-05-22T05:07:09;96389.78;;;18.53;71.32
20015;BME280;61787;42.022;23.078;2023-05-22T05:08:11;96391.69;;;18.63;71.43
20015;BME280;61787;42.022;23.078;2023-05-22T05:09:13;96386.22;;;18.77;72.32
20015;BME280;61787;42.022;23.078;2023-05-22T05:10:15;96394.28;;;18.91;71.80
20015;BME280;61787;42.022;23.078;2023-05-22T05:11:17;96392.28;;;19.02;70.52
20015;BME280;61787;42.022;23.078;2023-05-22T05:12:18;96397.63;;;19.16;70.61
20015;BME280;61787;42.022;23.078;2023-05-22T05:13:20;96397.53;;;19.31;70.69
20015;BME280;61787;42.022;23.078;2023-05-22T05:14:21;96399.06;;;19.32;69.01
20015;BME280;61787;42.022;23.078;2023-05-22T05:15:23;96406.06;;;19.33;67.70
20015;BME280;61787;42.022;23.078;2023-05-22T05:16:25;96399.06;;;19.32;68.46
20015;BME280;61787;42.022;23.078;2023-05-22T05:17:27;96404.81;;;19.44;67.67
20015;BME280;61787;42.022;23.078;2023-05-22T05:18:29;96398.13;;;19.56;66.73
20015;BME280;61787;42.022;23.078;2023-05-22T05:19:31;96402.78;;;19.59;66.42
20015;BME280;61787;42.022;23.078;2023-05-22T05:20:35;96404.44;;;19.42;65.67
20015;BME280;61787;42.022;23.078;2023-05-22T05:21:37;96400.25;;;19.31;66.76
20015;BME280;61787;42.022;23.078;2023-05-22T05:22:39;96403.25;;;19.47;66.67
20015;BME280;61787;42.022;23.078;2023-05-22T05:23:41;96401.19;;;19.62;66.38
20015;BME280;61787;42.022;23.078;2023-05-22T05:24:43;96403.41;;;19.77;65.82
20015;BME280;61787;42.022;23.078;2023-05-22T05:25:44;96404.88;;;19.85;65.67
20015;BME280;61787;42.022;23.078;2023-05-22T05:26:46;96400.91;;;19.93;65.72
20015;BME280;61787;42.022;23.078;2023-05-22T05:27:48;96403.16;;;20.06;65.49
20015;BME280;61787;42.022;23.078;2023-05-22T05:28:50;96399.84;;;20.21;65.39
20015;BME280;61787;42.022;23.078;2023-05-22T05:29:51;96394.72;;;20.30;65.35
20015;BME280;61787;42.022;23.078;2023-05-22T05:30:53;96400.41;;;20.43;65.59
20015;BME280;61787;42.022;23.078;2023-05-22T05:31:55;96397.50;;;20.61;64.96
20015;BME280;61787;42.022;23.078;2023-05-22T05:32:56;96392.22;;;20.77;64.49
20015;BME280;61787;42.022;23.078;2023-05-22T05:33:58;96402.09;;;20.94;63.40
20015;BME280;61787;42.022;23.078;2023-05-22T05:35:00;96397.34;;;21.02;63.95
20015;BME280;61787;42.022;23.078;2023-05-22T05:36:02;96399.16;;;21.12;63.47
20015;BME280;61787;42.022;23.078;2023-05-22T05:37:03;96399.81;;;21.23;63.25
20015;BME280;61787;42.022;23.078;2023-05-22T05:38:05;96394.59;;;21.32;62.71
20015;BME280;61787;42.022;23.078;2023-05-22T05:39:07;96394.00;;;21.44;61.13
20015;BME280;61787;42.022;23.078;2023-05-22T05:40:09;96388.91;;;21.46;61.25
20015;BME280;61787;42.022;23.078;2023-05-22T05:41:10;96399.72;;;21.53;61.13
20015;BME280;61787;42.022;23.078;2023-05-22T05:42:12;96395.63;;;21.65;60.44
20015;BME280;61787;42.022;23.078;2023-05-22T05:43:14;96393.91;;;21.75;60.64
20015;BME280;61787;42.022;23.078;2023-05-22T05:44:15;96395.41;;;21.79;61.23